Strona główna
METAR-TAF:

METAR-TAF

Lotnisko :

Keene, New Hampshire, Stany Zjednoczone

Szerokość geograficzna: 42-54N, Długość geograficzna: 072-16W, wysokość: 149 m

Aktualna obserwacja pogody

Raport powstał 51 minut temu, godzina 09:56 UTC
Wiatr 5 kt od południe
Temperatura -2°C
Wilgotność 80%
Ciśnienie 1015 hPa
Widzialność: 16.1 km
Zachmurzenie całkowite na wysokości 4700 ft

METAR: KEEN 210956Z AUTO 17005KT 10SM OVC047 M02/M05 A2996 RMK AO2 SLP165 T10221050 FZRANO $

czas: 05:47 (10:47 UTC)


TAF: brakujący

Obserwacja i prognoza pogody dla ponad 4000 lotnisk (raport METAR i TAF).

Dostępne stacje oznaczono żółtymi i czerwonymi punktami na mapie.

Najedź kursorem aby zobaczyć nazwę stacji.

Kliknij aby zobaczyć obserwacje i prognozy pogody.

Aby zmienić mapę: kliknij na zielony przycisk z czarnym krzyżykiem, aby powiększyć; na zielony przycisk z myślnikiem, aby pomniejszyć; na zielone strzałki, aby przejść do map sąsiednich.


METAR-TAF: